| time (UTC) | temp F | wind direction | speed MPH | gust MPH | rain 1hr in | rain 24hr in | rain mn in | humidity % | barometer mb |
| 20260506203059 | 53 | 314 | 3.0 | 10.0 | 0.00 | 0.08 | 0.01 | 83 | 1008.7 |
| 20260506201555 | 53 | 276 | 2.0 | 8.0 | 0.00 | 0.08 | 0.01 | 82 | 1008.5 |
| 20260506200053 | 53 | 298 | 2.0 | 10.0 | 0.00 | 0.08 | 0.01 | 82 | 1008.4 |
| 20260506194551 | 54 | 349 | 3.0 | 9.0 | 0.00 | 0.08 | 0.01 | 82 | 1008.3 |
| 20260506193048 | 54 | 323 | 2.0 | 5.0 | 0.00 | 0.08 | 0.01 | 82 | 1008.1 |
| 20260506191546 | 54 | 274 | 3.0 | 8.0 | 0.00 | 0.08 | 0.01 | 82 | 1007.9 |
| 20260506190044 | 55 | 232 | 2.0 | 8.0 | 0.00 | 0.08 | 0.01 | 81 | 1007.8 |
| 20260506184549 | 55 | 291 | 2.0 | 8.0 | 0.00 | 0.08 | 0.01 | 81 | 1007.5 |
| 20260506183052 | 55 | 334 | 4.0 | 10.0 | 0.00 | 0.08 | 0.01 | 81 | 1007.1 |
| 20260506181604 | 56 | 277 | 5.0 | 11.0 | 0.00 | 0.08 | 0.01 | 81 | 1007.0 |
| 20260506180037 | 56 | 320 | 4.0 | 11.0 | 0.00 | 0.08 | 0.01 | 81 | 1006.8 |
| 20260506174534 | 57 | 277 | 5.0 | 13.0 | 0.00 | 0.08 | 0.01 | 81 | 1006.7 |
| 20260506173048 | 57 | 292 | 6.0 | 13.0 | 0.00 | 0.08 | 0.01 | 81 | 1006.4 |
| 20260506171533 | 57 | 286 | 7.0 | 15.0 | 0.00 | 0.08 | 0.01 | 82 | 1006.2 |
| 20260506170038 | 58 | 270 | 5.0 | 11.0 | 0.00 | 0.08 | 0.01 | 81 | 1006.2 |
| 20260506164537 | 58 | 315 | 7.0 | 13.0 | 0.00 | 0.08 | 0.01 | 81 | 1006.1 |
| 20260506163035 | 58 | 304 | 8.0 | 17.0 | 0.00 | 0.08 | 0.01 | 79 | 1006.3 |
| 20260506161528 | 60 | 225 | 4.0 | 13.0 | 0.00 | 0.08 | 0.01 | 76 | 1006.1 |
| 20260506160026 | 62 | 280 | 8.0 | 17.0 | 0.00 | 0.08 | 0.01 | 71 | 1005.9 |
| 20260506154526 | 64 | 269 | 10.0 | 18.0 | 0.00 | 0.09 | 0.01 | 67 | 1005.8 |
| 20260506153025 | 64 | 248 | 6.0 | 13.0 | 0.00 | 0.09 | 0.01 | 64 | 1005.5 |
| 20260506151524 | 64 | 258 | 3.0 | 10.0 | 0.00 | 0.09 | 0.01 | 64 | 1005.4 |
| 20260506150024 | 65 | 209 | 4.0 | 14.0 | 0.00 | 0.09 | 0.01 | 62 | 1005.2 |
| 20260506144525 | 65 | 201 | 5.0 | 10.0 | 0.00 | 0.11 | 0.01 | 62 | 1005.1 |
| 20260506143023 | 66 | 228 | 7.0 | 13.0 | 0.00 | 0.11 | 0.01 | 61 | 1005.2 |
| 20260506141521 | 64 | 281 | 3.0 | 13.0 | 0.00 | 0.11 | 0.01 | 64 | 1005.2 |
| 20260506140021 | 64 | 207 | 4.0 | 9.0 | 0.00 | 0.11 | 0.01 | 63 | 1005.2 |
| 20260506134519 | 65 | 247 | 4.0 | 13.0 | 0.00 | 0.22 | 0.01 | 63 | 1005.2 |
| 20260506133022 | 65 | 218 | 6.0 | 13.0 | 0.00 | 0.22 | 0.01 | 62 | 1005.2 |
| 20260506131524 | 65 | 236 | 7.0 | 12.0 | 0.00 | 0.22 | 0.01 | 61 | 1005.3 |
| 20260506130016 | 65 | 212 | 4.0 | 15.0 | 0.00 | 0.22 | 0.01 | 61 | 1005.2 |
| 20260506124514 | 65 | 251 | 4.0 | 14.0 | 0.00 | 0.22 | 0.01 | 64 | 1005.3 |
| 20260506123014 | 65 | 176 | 7.0 | 14.0 | 0.00 | 0.22 | 0.01 | 63 | 1005.2 |
| 20260506121509 | 65 | 222 | 5.0 | 14.0 | 0.00 | 0.22 | 0.01 | 63 | 1005.3 |
| 20260506120016 | 64 | 250 | 5.0 | 11.0 | 0.00 | 0.22 | 0.01 | 63 | 1005.4 |
| 20260506114518 | 64 | 192 | 6.0 | 10.0 | 0.00 | 0.22 | 0.01 | 64 | 1005.5 |
| 20260506113021 | 64 | 251 | 1.0 | 10.0 | 0.00 | 0.22 | 0.01 | 65 | 1005.5 |
| 20260506111504 | 64 | 194 | 7.0 | 13.0 | 0.00 | 0.22 | 0.01 | 66 | 1005.6 |
| 20260506110003 | 63 | 210 | 5.0 | 8.0 | 0.00 | 0.22 | 0.01 | 69 | 1005.7 |
| 20260506104606 | 62 | 213 | 5.0 | 11.0 | 0.00 | 0.22 | 0.01 | 69 | 1005.8 |
| 20260506103100 | 62 | 223 | 5.0 | 10.0 | 0.00 | 0.22 | 0.01 | 69 | 1005.9 |
| 20260506101557 | 61 | 255 | 5.0 | 11.0 | 0.00 | 0.22 | 0.01 | 70 | 1006.0 |
| 20260506100056 | 61 | 230 | 5.0 | 10.0 | 0.00 | 0.22 | 0.01 | 72 | 1006.0 |
| 20260506094557 | 60 | 243 | 6.0 | 10.0 | 0.00 | 0.22 | 0.01 | 73 | 1006.0 |
| 20260506093056 | 60 | 247 | 4.0 | 9.0 | 0.01 | 0.22 | 0.01 | 72 | 1005.9 |
| 20260506091559 | 61 | 235 | 4.0 | 9.0 | 0.01 | 0.22 | 0.01 | 70 | 1005.7 |
| 20260506090100 | 61 | 255 | 5.0 | 14.0 | 0.01 | 0.22 | 0.01 | 71 | 1005.8 |
| 20260506084553 | 61 | 223 | 8.0 | 12.0 | 0.01 | 0.22 | 0.01 | 71 | 1005.8 |
| 20260506083050 | 62 | 241 | 7.0 | 15.0 | 0.00 | 0.21 | 0.00 | 71 | 1005.6 |
| 20260506081546 | 60 | 237 | 4.0 | 12.0 | 0.00 | 0.21 | 0.00 | 75 | 1005.5 |
| 20260506073038 | 59 | 197 | 5.0 | 8.0 | 0.00 | 0.21 | 0.00 | 80 | 1005.5 |
| 20260506071535 | 58 | 210 | 5.0 | 10.0 | 0.00 | 0.21 | 0.00 | 82 | 1005.4 |
| 20260506061523 | 56 | 197 | 0.0 | 8.0 | 0.00 | 0.21 | 0.00 | 90 | 1005.4 |
| 20260506044512 | 53 | 147 | 0.0 | 5.0 | 0.00 | 0.21 | 0.00 | 94 | 1005.4 |
| 20260506043013 | 53 | 151 | 0.0 | 3.0 | 0.00 | 0.21 | 0.00 | 94 | 1005.4 |
| 20260506041507 | 54 | 147 | 0.0 | 6.0 | 0.00 | 0.21 | 0.00 | 94 | 1005.5 |
| 20260506040007 | 54 | 141 | 3.0 | 7.0 | 0.00 | 0.21 | 0.00 | 94 | 1005.5 |
| 20260506034510 | 54 | 201 | 3.0 | 7.0 | 0.00 | 0.21 | 0.00 | 94 | 1005.6 |
| 20260506033003 | 54 | 142 | 1.0 | 6.0 | 0.00 | 0.21 | 0.00 | 94 | 1005.7 |
| 20260506031503 | 54 | 149 | 0.0 | 3.0 | 0.00 | 0.21 | 0.00 | 94 | 1005.6 |
| 20260506030007 | 54 | 176 | 1.0 | 5.0 | 0.00 | 0.21 | 0.00 | 94 | 1005.7 |
| 20260506024619 | 54 | 142 | 0.0 | 5.0 | 0.00 | 0.21 | 0.00 | 95 | 1005.6 |
| 20260506023100 | 54 | 144 | 0.0 | 4.0 | 0.00 | 0.21 | 0.00 | 95 | 1005.7 |
| 20260506021559 | 54 | 178 | 0.0 | 0.0 | 0.00 | 0.21 | 0.00 | 95 | 1005.7 |
| 20260506020058 | 54 | 137 | 0.0 | 0.0 | 0.00 | 0.21 | 0.00 | 95 | 1005.7 |
| 20260506014555 | 54 | 197 | 0.0 | 0.0 | 0.00 | 0.21 | 0.00 | 95 | 1005.9 |
| 20260506013107 | 54 | 219 | 0.0 | 0.0 | 0.00 | 0.21 | 0.00 | 95 | 1006.0 |
| 20260506011606 | 53 | 219 | 0.0 | 0.0 | 0.00 | 0.21 | 0.00 | 95 | 1006.0 |
| 20260506010056 | 54 | 197 | 0.0 | 0.0 | 0.00 | 0.21 | 0.00 | 94 | 1006.0 |
| 20260506004549 | 54 | 178 | 0.0 | 0.0 | 0.00 | 0.21 | 0.00 | 94 | 1006.3 |
| 20260506003048 | 54 | 190 | 1.0 | 4.0 | 0.00 | 0.21 | 0.00 | 94 | 1006.2 |
| 20260506001547 | 55 | 181 | 0.0 | 3.0 | 0.00 | 0.21 | 0.00 | 94 | 1006.2 |
| 20260506000047 | 55 | 209 | 0.0 | 0.0 | 0.00 | 0.21 | 0.00 | 94 | 1006.3 |
| 20260505234543 | 55 | 188 | 0.0 | 2.0 | 0.00 | 0.21 | 0.00 | 94 | 1006.4 |
| 20260505233042 | 55 | 220 | 0.0 | 6.0 | 0.00 | 0.21 | 0.00 | 94 | 1006.5 |
| 20260505231541 | 56 | 194 | 1.0 | 5.0 | 0.00 | 0.21 | 0.00 | 94 | 1006.5 |
| 20260505230051 | 56 | 199 | 0.0 | 6.0 | 0.00 | 0.21 | 0.00 | 94 | 1006.5 |
| 20260505224536 | 57 | 209 | 0.0 | 5.0 | 0.00 | 0.21 | 0.00 | 94 | 1006.5 |
| 20260505223040 | 57 | 163 | 0.0 | 5.0 | 0.01 | 0.21 | 0.00 | 94 | 1006.5 |
| 20260505221535 | 57 | 174 | 0.0 | 5.0 | 0.02 | 0.21 | 0.00 | 94 | 1006.5 |
| 20260505220030 | 57 | 182 | 1.0 | 4.0 | 0.03 | 0.21 | 0.00 | 93 | 1006.5 |
| 20260505214529 | 57 | 172 | 2.0 | 8.0 | 0.07 | 0.21 | 0.21 | 93 | 1006.6 |
| 20260505213040 | 58 | 190 | 0.0 | 0.0 | 0.06 | 0.20 | 0.20 | 93 | 1006.6 |
| 20260505211527 | 58 | 212 | 0.0 | 4.0 | 0.05 | 0.19 | 0.19 | 92 | 1006.7 |
| 20260505210028 | 59 | 144 | 0.0 | 3.0 | 0.03 | 0.17 | 0.17 | 92 | 1006.7 |
| 20260505204527 | 59 | 205 | 0.0 | 2.0 | 0.00 | 0.14 | 0.14 | 92 | 1006.6 |